Portada
METAR-TAF:

METAR-TAF

Aeroports :

Amman, Jordània

latitud: 31-59N, longitud: 035-59E, altitud: 767 m

Observació

L'informe es va fer fa 1 hora i 3 minuts, a les 08:00 UTC
Vent 6 kt del Est/Nord-Est
Temperatura 20°C
Humitat 23%
Pressió 1020 hPa
Visibilitat: 5000 m
calitja

METAR: OJAM 120800Z 07006KT 5000 HZ NSC 20/M02 Q1020 NOSIG

Hora: 11:03 (09:03 UTC)

Pronòstic

L'informe es va fer fa 4 hores i 3 minuts, a les 05:00 UTC
Pronòstic vàlid del 12 a les 06 UTC al 13 a les 12 UTC
Vent 10 kt del Est
Visibilitat: 5000 m
Escasses núvols a una alçada de 4000 ft
calitja
Evolucionant progressivament
l' 12 a les 18 UTC al 12 a les 20 UTC
Vent 2 kt amb direcció variable
Visibilitat: 6000 m

TAF: OJAM 120500Z 1206/1312 08010KT 5000 HZ FEW040 BECMG 1218/1220 VRB02KT 6000 NSC

Observacions i pronòstics meteorològics de més de 4000 aeroports (METAR i TAF).

Les estacions disponibles són els punts grocs i vermells al mapa.

Posi el ratolí al punt desitjat per veure el nom de l'estació.

Feu clic per veure les observacions i els pronòstics meteorològics.

Per canviar el mapa: feu clic els botons verds amb una creu de color negre per apropar; al botó verd amb un guió per allunyar la imatge; o en les fletxes verdes per a mapes adjacents.


METAR-TAF: